Time;durP1;ratioP1;P1;durP2;ratioP2;P2;SDS_P1;SDS_P2;PMS_P1;PMS_P2;Temp;Humidity;BMP_temperature;BMP_pressure;BME280_temperature;BME280_humidity;BME280_pressure;Samples;Min_cycle;Max_cycle;Signal;HPM_P1;HPM_P2
2022/04/18 00:00:10;;;;;;;8.90;5.30;;;;;;;6.32;40.91;100912.10;108501;1274;22842;-82
2022/04/18 00:02:37;;;;;;;10.10;5.90;;;;;;;6.26;41.05;100910.95;109045;1273;22563;-83
2022/04/18 00:05:03;;;;;;;10.50;5.60;;;;;;;6.27;41.29;100911.85;108702;1274;22566;-85
2022/04/18 00:07:29;;;;;;;9.50;5.90;;;;;;;6.24;41.17;100905.51;107590;1275;22577;-84
2022/04/18 00:09:56;;;;;;;6.60;5.10;;;;;;;6.24;41.20;100907.59;107190;1275;22535;-76
2022/04/18 00:12:22;;;;;;;7.90;5.20;;;;;;;6.24;41.35;100907.95;106144;1275;23094;-73
2022/04/18 00:14:48;;;;;;;7.80;5.30;;;;;;;6.23;41.48;100907.77;106088;1274;24386;-74
2022/04/18 00:17:14;;;;;;;7.70;5.60;;;;;;;6.19;41.32;100904.54;105954;1275;25274;-75
2022/04/18 00:19:41;;;;;;;7.90;5.30;;;;;;;6.18;41.38;100903.48;106104;1274;26598;-74
2022/04/18 00:22:07;;;;;;;8.10;5.80;;;;;;;6.17;41.40;100901.02;105875;1275;25263;-74
2022/04/18 00:24:33;;;;;;;7.10;5.20;;;;;;;6.15;41.45;100900.45;106211;1274;25454;-75
2022/04/18 00:27:02;;;;;;;8.00;5.50;;;;;;;6.10;41.56;100900.88;106010;1275;25522;-74
2022/04/18 00:29:28;;;;;;;8.60;5.30;;;;;;;6.04;41.48;100900.23;106065;1275;22549;-74
2022/04/18 00:31:55;;;;;;;10.00;5.50;;;;;;;5.99;41.66;100899.11;106072;1274;24298;-76
2022/04/18 00:34:21;;;;;;;12.10;5.80;;;;;;;5.97;41.53;100900.28;106133;1274;25548;-76
2022/04/18 00:36:47;;;;;;;11.20;5.90;;;;;;;5.91;41.63;100897.20;105621;1281;22561;-75
2022/04/18 00:39:13;;;;;;;8.60;5.70;;;;;;;5.86;41.84;100897.46;105500;1281;22678;-75
2022/04/18 00:41:40;;;;;;;10.10;6.40;;;;;;;5.85;42.10;100893.24;105583;1281;22547;-74
2022/04/18 00:44:06;;;;;;;9.40;5.30;;;;;;;5.79;41.89;100891.56;105367;1281;25439;-74
2022/04/18 00:46:33;;;;;;;9.40;5.90;;;;;;;5.77;42.15;100890.84;105508;1281;24653;-75
2022/04/18 00:48:59;;;;;;;9.60;5.50;;;;;;;5.76;42.27;100887.84;105559;1281;22570;-75
2022/04/18 00:51:26;;;;;;;9.20;5.70;;;;;;;5.73;42.32;100884.29;105538;1279;22550;-75
2022/04/18 00:53:55;;;;;;;8.80;5.60;;;;;;;5.69;42.34;100881.95;105410;1281;22529;-75
2022/04/18 00:56:23;;;;;;;7.40;5.00;;;;;;;5.61;42.50;100872.70;106141;1274;24228;-78
2022/04/18 00:58:50;;;;;;;7.40;5.40;;;;;;;5.63;42.70;100877.48;106141;1274;22561;-76
2022/04/18 01:01:18;;;;;;;9.80;5.90;;;;;;;5.60;42.73;100881.79;105979;1275;24901;-82
2022/04/18 01:03:47;;;;;;;7.90;5.50;;;;;;;5.61;42.74;100884.25;105863;1274;25267;-75
2022/04/18 01:06:15;;;;;;;6.70;4.90;;;;;;;5.64;42.84;100878.52;105971;1274;25346;-75
2022/04/18 01:08:43;;;;;;;8.50;5.30;;;;;;;5.63;43.03;100872.75;106105;1274;25403;-74
2022/04/18 01:11:10;;;;;;;7.90;5.40;;;;;;;5.61;42.95;100876.56;106093;1274;22828;-72
2022/04/18 01:14:03;;;;;;;7.70;5.20;;;;;;;5.60;42.99;100879.33;106101;1274;22564;-75
2022/04/18 01:16:39;;;;;;;9.50;5.70;;;;;;;5.63;43.22;100875.20;106060;1274;25083;-70
2022/04/18 01:19:28;;;;;;;9.30;5.50;;;;;;;5.63;43.12;100877.27;105686;1273;22550;-72
2022/04/18 01:22:01;;;;;;;8.00;5.40;;;;;;;5.61;43.27;100868.85;105843;1274;25181;-75
2022/04/18 01:30:22;;;;;;;8.00;5.40;;;;;;;5.56;43.40;100861.61;105788;1274;23213;-72
2022/04/18 01:32:50;;;;;;;10.10;5.50;;;;;;;5.55;43.47;100858.44;105772;1277;22558;-74
2022/04/18 01:35:16;;;;;;;9.90;4.90;;;;;;;5.57;43.57;100863.90;106107;1274;22634;-74
2022/04/18 01:37:42;;;;;;;9.70;6.00;;;;;;;5.56;43.60;100859.33;106194;1274;25079;-77
2022/04/18 01:40:12;;;;;;;7.90;5.80;;;;;;;5.51;43.56;100863.07;105978;1274;22548;-73
2022/04/18 01:42:38;;;;;;;7.00;5.20;;;;;;;5.48;43.78;100856.73;105579;1275;22563;-76
2022/04/18 01:45:06;;;;;;;7.20;5.50;;;;;;;5.48;43.94;100857.61;105780;1275;22570;-74
2022/04/18 01:47:32;;;;;;;8.10;5.50;;;;;;;5.47;43.93;100855.32;106007;1277;24464;-74
2022/04/18 01:49:58;;;;;;;9.00;5.50;;;;;;;5.45;43.86;100854.60;105893;1275;24315;-73
2022/04/18 01:52:24;;;;;;;7.40;5.20;;;;;;;5.46;43.93;100851.98;105562;1279;22851;-72
2022/04/18 01:54:50;;;;;;;9.30;5.70;;;;;;;5.46;43.91;100846.74;105531;1279;25309;-74
2022/04/18 01:57:19;;;;;;;8.40;5.50;;;;;;;5.43;43.87;100848.42;105461;1281;22656;-72
2022/04/18 01:59:45;;;;;;;7.80;5.30;;;;;;;5.39;43.97;100840.86;105539;1281;22597;-73
2022/04/18 02:02:12;;;;;;;8.10;5.40;;;;;;;5.40;44.18;100842.98;105716;1279;22722;-73
2022/04/18 02:04:38;;;;;;;8.20;5.00;;;;;;;5.39;44.32;100844.52;105669;1279;22730;-74
2022/04/18 02:07:05;;;;;;;8.10;5.00;;;;;;;5.35;44.63;100838.50;105594;1279;22568;-74
2022/04/18 02:09:31;;;;;;;8.60;5.70;;;;;;;5.36;44.46;100835.71;105315;1281;25090;-74
2022/04/18 02:11:57;;;;;;;9.20;5.50;;;;;;;5.37;44.44;100833.13;105784;1275;25443;-73
2022/04/18 02:14:29;;;;;;;7.60;5.40;;;;;;;5.35;44.60;100828.73;106046;1274;22533;-73
2022/04/18 02:16:56;;;;;;;7.80;5.50;;;;;;;5.32;44.79;100833.38;106039;1274;22538;-74
2022/04/18 02:19:23;;;;;;;8.40;5.40;;;;;;;5.31;44.96;100834.75;105940;1277;25379;-75
2022/04/18 02:21:49;;;;;;;8.10;5.30;;;;;;;5.32;44.96;100827.77;106009;1275;22560;-76
2022/04/18 02:24:15;;;;;;;7.40;5.40;;;;;;;5.34;45.16;100828.00;106031;1274;22590;-75
2022/04/18 02:26:41;;;;;;;9.60;5.80;;;;;;;5.35;45.10;100822.09;106068;1274;24129;-75
2022/04/18 02:29:10;;;;;;;8.10;5.60;;;;;;;5.34;45.21;100820.15;105721;1274;27168;-73
2022/04/18 02:32:47;;;;;;;8.60;5.40;;;;;;;5.30;45.01;100820.05;105594;1277;25259;-77
2022/04/18 02:34:23;;;;;;;8.70;5.50;;;;;;;5.29;45.09;100820.73;105751;1275;22567;-75
2022/04/18 02:36:50;;;;;;;8.50;5.40;;;;;;;5.29;45.13;100820.20;106056;1274;22646;-73
2022/04/18 02:39:16;;;;;;;10.80;5.50;;;;;;;5.28;45.26;100818.80;105989;1274;22557;-75
2022/04/18 02:41:42;;;;;;;8.20;5.10;;;;;;;5.28;45.19;100819.31;106028;1274;22547;-74
2022/04/18 02:44:09;;;;;;;10.10;6.10;;;;;;;5.30;45.28;100814.65;105935;1274;25254;-75
2022/04/18 02:46:35;;;;;;;6.50;5.10;;;;;;;5.26;45.13;100811.95;105926;1274;24292;-75
2022/04/18 02:49:03;;;;;;;7.50;5.60;;;;;;;5.20;45.14;100816.89;106055;1274;22589;-74
2022/04/18 02:51:30;;;;;;;7.90;5.20;;;;;;;5.17;45.30;100820.15;105995;1276;22571;-76
2022/04/18 02:54:01;;;;;;;7.40;5.00;;;;;;;5.14;45.36;100819.41;105468;1281;22566;-74
2022/04/18 02:56:30;;;;;;;8.70;5.60;;;;;;;5.09;45.57;100820.70;105239;1281;22565;-75
2022/04/18 02:58:57;;;;;;;9.20;5.60;;;;;;;5.04;45.62;100818.52;105538;1281;22537;-75
2022/04/18 03:01:23;;;;;;;9.40;6.00;;;;;;;4.97;45.55;100815.04;105172;1281;22585;-74
2022/04/18 03:03:50;;;;;;;8.90;6.40;;;;;;;4.91;45.73;100815.97;105564;1281;22613;-73
2022/04/18 03:06:16;;;;;;;8.80;5.70;;;;;;;4.84;45.95;100814.95;105300;1281;22538;-73
2022/04/18 03:08:42;;;;;;;9.10;6.00;;;;;;;4.79;46.01;100814.15;105397;1281;23952;-72
2022/04/18 03:11:10;;;;;;;11.00;6.60;;;;;;;4.75;46.29;100813.17;104880;1281;22562;-73
2022/04/18 03:13:44;;;;;;;9.10;5.70;;;;;;;4.69;46.17;100816.53;105993;1275;22697;-75
2022/04/18 03:16:18;;;;;;;9.30;5.90;;;;;;;4.66;46.39;100812.80;105833;1275;22549;-75
2022/04/18 03:18:45;;;;;;;10.40;6.20;;;;;;;4.65;46.65;100811.58;106063;1276;26498;-75
2022/04/18 03:21:13;;;;;;;10.10;6.60;;;;;;;4.63;46.64;100812.92;106033;1275;24280;-71
2022/04/18 03:23:42;;;;;;;9.30;6.10;;;;;;;4.57;46.68;100811.23;105762;1273;22586;-80
2022/04/18 03:26:17;;;;;;;8.90;5.70;;;;;;;4.51;46.73;100804.83;105591;1281;22631;-77
2022/04/18 03:29:01;;;;;;;10.80;6.30;;;;;;;4.44;46.91;100806.76;105428;1280;22566;-75
2022/04/18 03:31:27;;;;;;;10.50;6.10;;;;;;;4.41;47.17;100807.73;105297;1281;23499;-76
2022/04/18 03:33:53;;;;;;;8.70;6.00;;;;;;;4.40;47.23;100809.45;105229;1281;22576;-75
2022/04/18 03:41:52;;;;;;;8.80;5.90;;;;;;;4.34;47.53;100812.98;106990;1281;22521;-76
2022/04/18 03:44:18;;;;;;;7.70;5.70;;;;;;;4.36;47.51;100813.38;107290;1275;25944;-75
2022/04/18 03:46:44;;;;;;;8.70;6.00;;;;;;;4.33;47.53;100810.00;107257;1275;22545;-75
2022/04/18 03:49:10;;;;;;;8.70;6.40;;;;;;;4.28;47.67;100803.77;107007;1273;22546;-79
2022/04/18 03:51:38;;;;;;;10.90;6.40;;;;;;;4.28;47.77;100811.98;106321;1273;22568;-77
2022/04/18 03:54:05;;;;;;;8.80;5.80;;;;;;;4.30;47.96;100815.34;106570;1274;25259;-78
2022/04/18 03:56:35;;;;;;;9.80;5.80;;;;;;;4.30;47.89;100815.52;105872;1274;25016;-78
2022/04/18 03:59:23;;;;;;;8.10;5.90;;;;;;;4.28;47.81;100813.02;105935;1274;22538;-75
2022/04/18 04:01:58;;;;;;;6.70;5.30;;;;;;;4.20;47.99;100810.20;106023;1274;22547;-79
2022/04/18 04:04:26;;;;;;;11.30;5.50;;;;;;;4.18;48.28;100815.23;105903;1275;22557;-78
2022/04/18 04:06:53;;;;;;;7.30;5.60;;;;;;;4.16;48.38;100814.30;106014;1274;22552;-75
2022/04/18 04:09:19;;;;;;;8.60;5.60;;;;;;;4.12;48.43;100814.55;107336;1274;22951;-80
2022/04/18 04:11:46;;;;;;;8.50;6.10;;;;;;;4.10;48.36;100813.65;107388;1275;22733;-77
2022/04/18 04:14:12;;;;;;;8.60;6.00;;;;;;;4.07;48.49;100816.71;106515;1274;22482;-78
2022/04/18 04:16:38;;;;;;;7.50;5.30;;;;;;;4.08;48.60;100811.49;107835;1273;22665;-76
2022/04/18 04:19:06;;;;;;;9.60;6.00;;;;;;;4.06;48.58;100815.82;107625;1273;22475;-78
2022/04/18 04:21:33;;;;;;;9.30;5.40;;;;;;;4.07;48.64;100819.13;106529;1274;23950;-77
2022/04/18 04:24:00;;;;;;;8.90;6.10;;;;;;;4.09;48.53;100813.43;106036;1273;22551;-77
2022/04/18 04:26:31;;;;;;;7.50;5.10;;;;;;;4.10;48.59;100818.69;106083;1274;22685;-77
2022/04/18 04:28:58;;;;;;;7.40;4.80;;;;;;;4.08;48.71;100819.69;106028;1274;25263;-74
2022/04/18 04:31:28;;;;;;;9.30;5.40;;;;;;;4.10;48.83;100824.44;105861;1275;22541;-73
2022/04/18 04:33:56;;;;;;;7.30;5.40;;;;;;;4.11;48.95;100821.16;106130;1273;22648;-72
2022/04/18 04:36:22;;;;;;;9.50;6.70;;;;;;;4.10;48.85;100816.95;106171;1274;22636;-79
2022/04/18 04:38:50;;;;;;;8.80;5.20;;;;;;;4.14;48.86;100816.16;106169;1273;25279;-81
2022/04/18 04:41:21;;;;;;;8.10;5.00;;;;;;;4.15;48.65;100820.20;105888;1274;25430;-80
2022/04/18 04:43:52;;;;;;;6.80;4.60;;;;;;;4.10;48.48;100819.73;106096;1277;22559;-79
2022/04/18 04:46:23;;;;;;;7.50;5.10;;;;;;;4.06;48.53;100824.52;105769;1277;22570;-81
2022/04/18 04:48:55;;;;;;;8.80;5.60;;;;;;;4.04;48.56;100824.11;105872;1276;24984;-80
2022/04/18 04:51:22;;;;;;;8.90;5.70;;;;;;;4.00;48.75;100826.63;105472;1278;26837;-79
2022/04/18 04:53:48;;;;;;;9.20;5.70;;;;;;;3.99;48.79;100829.92;105674;1276;25281;-80
2022/04/18 04:56:24;;;;;;;7.20;4.90;;;;;;;3.94;48.53;100833.30;105735;1276;25262;-81
2022/04/18 04:58:51;;;;;;;7.10;5.60;;;;;;;3.90;48.80;100835.27;105759;1276;22657;-82
2022/04/18 05:01:18;;;;;;;7.30;4.80;;;;;;;3.96;49.03;100834.38;105965;1276;24465;-81
2022/04/18 05:04:01;;;;;;;8.30;5.50;;;;;;;4.04;49.02;100833.54;106258;1274;22538;-80
2022/04/18 05:06:27;;;;;;;8.50;5.50;;;;;;;4.05;48.86;100832.34;105083;1281;232151;-81
2022/04/18 05:08:55;;;;;;;6.90;5.00;;;;;;;4.07;49.01;100831.89;105584;1280;22669;-84
2022/04/18 05:11:22;;;;;;;6.80;5.00;;;;;;;4.12;48.96;100832.88;105334;1282;22529;-82
2022/04/18 05:13:53;;;;;;;7.40;5.10;;;;;;;4.18;49.09;100825.67;105580;1279;22560;-83
2022/04/18 05:16:25;;;;;;;8.30;5.70;;;;;;;4.19;48.85;100826.41;105083;1279;22530;-82
2022/04/18 05:18:56;;;;;;;7.10;5.10;;;;;;;4.18;48.66;100830.20;105478;1279;22642;-83
2022/04/18 05:21:22;;;;;;;9.10;5.70;;;;;;;4.15;48.52;100833.11;105228;1279;22648;-83
2022/04/18 05:23:50;;;;;;;6.10;4.70;;;;;;;4.13;48.46;100833.58;105546;1275;24591;-83
2022/04/18 05:26:17;;;;;;;6.70;5.00;;;;;;;4.09;48.62;100832.09;106067;1273;22557;-84
2022/04/18 05:28:44;;;;;;;8.30;5.80;;;;;;;4.17;48.63;100834.21;105799;1274;22554;-83
2022/04/18 05:31:10;;;;;;;7.80;5.30;;;;;;;4.23;48.58;100835.02;105726;1274;22721;-81
2022/04/18 05:33:38;;;;;;;7.70;5.20;;;;;;;4.26;48.49;100833.71;105728;1274;22603;-81
2022/04/18 05:36:16;;;;;;;8.00;5.30;;;;;;;4.28;48.50;100833.59;106027;1274;26501;-81
2022/04/18 05:38:42;;;;;;;7.80;5.20;;;;;;;4.28;48.44;100831.67;106084;1274;22567;-82
2022/04/18 05:41:15;;;;;;;6.80;4.80;;;;;;;4.36;48.47;100828.55;105765;1274;25217;-80
2022/04/18 05:43:43;;;;;;;8.20;5.40;;;;;;;4.43;48.42;100822.95;105724;1273;22547;-81
2022/04/18 05:46:09;;;;;;;7.70;5.40;;;;;;;4.49;48.36;100822.05;105945;1274;22601;-83
2022/04/18 05:48:36;;;;;;;9.70;5.60;;;;;;;4.53;48.28;100813.06;105980;1274;22607;-80
2022/04/18 05:51:03;;;;;;;9.20;5.30;;;;;;;4.59;48.23;100817.02;106123;1273;22538;-80
2022/04/18 05:53:30;;;;;;;8.00;5.40;;;;;;;4.64;48.04;100815.91;105988;1273;22701;-81
2022/04/18 05:56:16;;;;;;;8.20;4.90;;;;;;;4.71;48.03;100814.85;105477;1279;23979;-79
2022/04/18 05:58:55;;;;;;;10.10;4.90;;;;;;;4.79;48.08;100813.95;105638;1279;22555;-85
2022/04/18 06:01:44;;;;;;;7.70;5.70;;;;;;;4.86;47.95;100813.08;105217;1279;24231;-88
2022/04/18 06:04:22;;;;;;;8.40;5.20;;;;;;;4.93;47.76;100814.77;106189;1279;26664;-84
2022/04/18 06:07:05;;;;;;;6.70;4.60;;;;;;;4.96;47.43;100811.71;105295;1279;22552;-82
2022/04/18 06:09:32;;;;;;;9.30;5.60;;;;;;;5.01;47.30;100813.55;105365;1279;22556;-86
2022/04/18 06:11:58;;;;;;;6.70;4.50;;;;;;;5.03;47.23;100810.98;105730;1279;24124;-82
2022/04/18 06:14:27;;;;;;;8.50;4.70;;;;;;;5.08;47.00;100810.02;105724;1276;25057;-83
2022/04/18 06:16:53;;;;;;;9.30;4.70;;;;;;;5.12;47.05;100812.55;106286;1274;24263;-82
2022/04/18 06:19:21;;;;;;;7.40;4.50;;;;;;;5.15;46.96;100815.07;107586;1274;22563;-82
2022/04/18 06:21:48;;;;;;;7.80;5.00;;;;;;;5.20;46.91;100811.48;107388;1273;22584;-86
2022/04/18 06:24:18;;;;;;;6.10;4.10;;;;;;;5.23;46.90;100811.89;107141;1274;25268;-88
2022/04/18 06:26:58;;;;;;;5.60;4.50;;;;;;;5.34;46.58;100815.08;106934;1274;25387;-87
2022/04/18 06:29:44;;;;;;;5.90;4.10;;;;;;;5.46;46.34;100809.02;107424;1273;25972;-87
2022/04/18 06:32:41;;;;;;;4.90;4.00;;;;;;;5.59;46.08;100812.73;107840;1274;22486;-85
2022/04/18 06:35:49;;;;;;;6.40;3.80;;;;;;;5.65;45.52;100807.95;107733;1274;22590;-86
2022/04/18 06:38:40;;;;;;;5.80;3.70;;;;;;;5.76;45.28;100813.39;107626;1274;22493;-87
2022/04/18 06:41:49;;;;;;;5.60;3.50;;;;;;;5.84;44.98;100808.10;107401;1274;22482;-89
2022/04/18 06:45:04;;;;;;;5.10;3.30;;;;;;;5.87;44.68;100805.70;107772;1273;22860;-87
2022/04/18 06:47:54;;;;;;;6.20;3.10;;;;;;;6.01;44.37;100811.19;107036;1279;22598;-84
2022/04/18 06:51:21;;;;;;;4.50;3.00;;;;;;;6.08;44.10;100810.45;105979;1284;25389;-87
2022/04/18 06:56:58;;;;;;;5.10;2.80;;;;;;;6.20;43.80;100809.59;106034;1288;24227;-88
2022/04/18 06:59:15;;;;;;;5.80;3.10;;;;;;;6.38;43.39;100807.41;106005;1290;22576;-93
2022/04/18 07:07:12;;;;;;;;;;;;;;;;;;;;;
2022/04/18 07:11:07;;;;;;;;;;;;;;;;;;;;;
2022/04/18 07:18:02;;;;;;;;;;;;;;;;;;;;;
2022/04/18 07:25:30;;;;;;;;;;;;;;;;;;;;;
2022/04/18 07:32:28;;;;;;;6.50;1.70;;;;;;;7.51;39.93;100785.16;108920;1281;22747;-91
2022/04/18 07:35:06;;;;;;;3.80;2.10;;;;;;;7.63;39.52;100783.69;105523;1284;22572;-84
2022/04/18 07:38:48;;;;;;;3.40;1.90;;;;;;;7.74;39.40;100781.52;105215;1284;25286;-82
2022/04/18 07:40:24;;;;;;;1.60;1.40;;;;;;;7.86;38.86;100782.31;105081;1285;22614;-83
2022/04/18 07:42:51;;;;;;;3.60;1.70;;;;;;;7.92;38.44;100779.20;105341;1287;23348;-85
2022/04/18 07:45:17;;;;;;;2.20;1.70;;;;;;;8.04;38.37;100781.58;105281;1284;23943;-83
2022/04/18 07:47:43;;;;;;;2.40;1.90;;;;;;;8.13;38.19;100775.66;105035;1287;24281;-84
2022/04/18 07:50:11;;;;;;;2.10;1.60;;;;;;;8.21;38.07;100771.87;105313;1284;22567;-83
2022/04/18 07:52:37;;;;;;;5.70;1.60;;;;;;;8.30;37.86;100769.13;105411;1284;23054;-84
2022/04/18 07:55:07;;;;;;;2.50;1.50;;;;;;;8.40;37.17;100765.33;105842;1281;25390;-83
2022/04/18 07:57:33;;;;;;;2.00;1.50;;;;;;;8.49;37.14;100764.48;104875;1288;24252;-82
2022/04/18 08:00:06;;;;;;;1.20;1.10;;;;;;;8.59;36.84;100760.89;105029;1287;25478;-82
2022/04/18 08:02:40;;;;;;;3.30;1.40;;;;;;;8.68;36.19;100761.64;104766;1288;25280;-82
2022/04/18 08:05:09;;;;;;;3.10;1.50;;;;;;;8.78;36.09;100760.80;104902;1287;22569;-83
2022/04/18 08:07:43;;;;;;;1.20;1.10;;;;;;;8.88;35.82;100758.38;104835;1287;23335;-85
2022/04/18 08:10:10;;;;;;;2.60;1.20;;;;;;;9.02;35.29;100760.55;105033;1287;22594;-84
2022/04/18 08:12:39;;;;;;;1.40;1.00;;;;;;;9.14;35.16;100757.05;105770;1287;22839;-85
2022/04/18 08:15:23;;;;;;;1.20;0.90;;;;;;;9.31;34.66;100754.98;104974;1281;22551;-87
2022/04/18 08:17:50;;;;;;;1.40;1.00;;;;;;;9.44;34.32;100749.73;105710;1281;22760;-87
2022/04/18 08:20:23;;;;;;;2.40;1.00;;;;;;;9.58;34.09;100751.17;105381;1280;22511;-85
2022/04/18 08:22:49;;;;;;;2.70;1.00;;;;;;;9.68;33.49;100752.05;105473;1281;22556;-86
2022/04/18 08:25:35;;;;;;;1.10;1.00;;;;;;;9.80;32.43;100751.00;105773;1281;24728;-90
2022/04/18 08:28:28;;;;;;;2.40;1.40;;;;;;;9.88;32.55;100745.38;106931;1281;22562;-85
2022/04/18 08:30:55;;;;;;;1.20;1.00;;;;;;;10.01;32.75;100745.52;106139;1281;23077;-86
2022/04/18 08:33:41;;;;;;;2.50;1.10;;;;;;;10.13;32.80;100742.70;105430;1281;22605;-83
2022/04/18 08:36:08;;;;;;;1.20;1.10;;;;;;;10.22;31.96;100734.94;105520;1281;24292;-88
2022/04/18 08:38:34;;;;;;;2.10;1.10;;;;;;;10.33;32.02;100729.29;105522;1284;23279;-81
2022/04/18 08:41:22;;;;;;;1.10;1.00;;;;;;;10.47;31.76;100725.90;105527;1282;23974;-81
2022/04/18 08:43:49;;;;;;;1.70;1.30;;;;;;;10.58;31.54;100728.70;105303;1284;22598;-80
2022/04/18 08:46:17;;;;;;;4.10;0.80;;;;;;;10.70;31.63;100729.71;105337;1281;22560;-80
2022/04/18 08:54:22;;;;;;;2.60;1.00;;;;;;;11.15;30.83;100725.80;105454;1281;22571;-85
2022/04/18 08:56:48;;;;;;;1.00;0.90;;;;;;;11.26;30.61;100720.25;105326;1281;22540;-81
2022/04/18 08:59:15;;;;;;;0.80;0.70;;;;;;;11.39;30.28;100722.10;105330;1283;22618;-80
2022/04/18 09:01:52;;;;;;;2.30;1.00;;;;;;;11.52;30.20;100718.84;105077;1281;22587;-83
2022/04/18 09:04:48;;;;;;;1.50;1.10;;;;;;;11.71;30.25;100716.02;104672;1284;22673;-82
2022/04/18 09:07:15;;;;;;;5.50;1.00;;;;;;;11.81;29.32;100707.66;105050;1284;22591;-82
2022/04/18 09:09:48;;;;;;;1.10;1.00;;;;;;;11.78;29.06;100701.69;105002;1284;22579;-81
2022/04/18 09:12:21;;;;;;;1.40;0.90;;;;;;;11.86;29.31;100694.38;104949;1287;22560;-83
2022/04/18 09:15:10;;;;;;;2.30;0.90;;;;;;;12.08;29.53;100695.05;104824;1284;22576;-86
2022/04/18 09:17:37;;;;;;;1.50;1.30;;;;;;;12.24;29.51;100688.91;104957;1287;25292;-85
2022/04/18 09:20:17;;;;;;;1.80;1.20;;;;;;;12.40;29.46;100684.84;105298;1284;25978;-84
2022/04/18 09:22:48;;;;;;;1.20;1.10;;;;;;;12.49;29.08;100685.24;104975;1287;22596;-87
2022/04/18 09:25:18;;;;;;;1.20;1.10;;;;;;;12.60;29.07;100679.80;104745;1290;22865;-88
2022/04/18 09:27:57;;;;;;;1.30;1.00;;;;;;;12.73;29.03;100671.70;105189;1284;24364;-90
2022/04/18 09:30:31;;;;;;;1.20;0.90;;;;;;;12.82;28.70;100676.16;105878;1281;22644;-84
2022/04/18 09:33:06;;;;;;;1.50;0.90;;;;;;;12.91;28.39;100663.31;105612;1281;25397;-84
2022/04/18 09:35:47;;;;;;;1.70;1.20;;;;;;;13.11;28.41;100659.48;105601;1282;22576;-91
2022/04/18 09:38:18;;;;;;;1.40;1.00;;;;;;;13.22;28.33;100650.48;105911;1281;22709;-88
2022/04/18 09:41:02;;;;;;;1.80;0.90;;;;;;;13.42;28.29;100648.91;105604;1281;22580;-84
2022/04/18 09:43:37;;;;;;;3.90;1.20;;;;;;;13.57;28.10;100639.49;105579;1281;22558;-86
2022/04/18 09:46:05;;;;;;;1.40;1.00;;;;;;;13.76;27.90;100636.67;106036;1281;23811;-86
2022/04/18 09:48:33;;;;;;;3.10;1.00;;;;;;;13.90;27.64;100635.72;105900;1281;22539;-87
2022/04/18 09:51:08;;;;;;;0.80;0.80;;;;;;;14.10;27.68;100634.09;105624;1283;22776;-83
2022/04/18 09:53:44;;;;;;;1.90;1.00;;;;;;;14.19;26.55;100632.50;105641;1281;25335;-87
2022/04/18 09:56:20;;;;;;;1.10;1.00;;;;;;;14.15;26.72;100622.66;105686;1281;22581;-87
2022/04/18 09:58:47;;;;;;;1.20;0.90;;;;;;;14.30;26.86;100623.61;105540;1281;22550;-86
2022/04/18 10:01:33;;;;;;;1.70;1.20;;;;;;;14.41;26.57;100622.66;105820;1280;22723;-80
2022/04/18 10:04:03;;;;;;;1.00;1.00;;;;;;;14.42;26.12;100616.61;105504;1281;22598;-83
2022/04/18 10:06:30;;;;;;;1.10;0.90;;;;;;;14.45;25.85;100610.17;105398;1282;22572;-81
2022/04/18 10:08:57;;;;;;;1.40;0.80;;;;;;;14.60;26.25;100617.83;105458;1281;22559;-82
2022/04/18 10:11:24;;;;;;;1.30;0.80;;;;;;;14.79;26.27;100606.77;105876;1281;22572;-83
2022/04/18 10:13:51;;;;;;;2.20;0.90;;;;;;;14.94;25.73;100605.91;105837;1281;22563;-79
2022/04/18 10:16:18;;;;;;;2.00;1.00;;;;;;;15.08;25.72;100600.27;105551;1281;22588;-80
2022/04/18 10:19:02;;;;;;;2.10;1.20;;;;;;;15.28;26.12;100594.43;105528;1281;26545;-82
2022/04/18 10:21:32;;;;;;;2.30;0.90;;;;;;;15.46;25.48;100593.46;105226;1284;22713;-83
2022/04/18 10:24:24;;;;;;;1.10;0.90;;;;;;;15.46;25.18;100589.73;105183;1284;22566;-81
2022/04/18 10:27:00;;;;;;;1.30;0.90;;;;;;;15.59;25.37;100590.27;105411;1287;22965;-84
2022/04/18 10:29:39;;;;;;;1.10;1.00;;;;;;;15.71;25.26;100583.02;106603;1284;23182;-86
2022/04/18 10:32:10;;;;;;;1.30;0.80;;;;;;;15.86;24.72;100570.38;106838;1284;22584;-87
2022/04/18 10:34:39;;;;;;;1.00;0.80;;;;;;;15.96;24.58;100568.68;107036;1284;22573;-81
2022/04/18 10:37:08;;;;;;;3.10;1.10;;;;;;;15.99;24.86;100567.36;106585;1285;24237;-80
2022/04/18 10:39:39;;;;;;;1.40;1.10;;;;;;;16.15;24.85;100568.50;107323;1284;25344;-81
2022/04/18 10:42:22;;;;;;;3.60;0.80;;;;;;;16.37;24.74;100569.99;106280;1284;24307;-85
2022/04/18 10:44:58;;;;;;;1.30;1.10;;;;;;;16.53;24.55;100564.70;105181;1284;25404;-82
2022/04/18 10:47:26;;;;;;;1.20;1.00;;;;;;;16.71;24.11;100557.90;105348;1284;22632;-82
2022/04/18 10:50:18;;;;;;;1.70;1.20;;;;;;;16.85;23.55;100562.09;105082;1281;25405;-83
2022/04/18 10:53:22;;;;;;;0.80;0.80;;;;;;;16.89;23.29;100564.12;105410;1281;22594;-84
2022/04/18 10:55:51;;;;;;;2.70;1.10;;;;;;;17.03;23.35;100548.36;105623;1281;25273;-84
2022/04/18 10:58:22;;;;;;;3.00;1.00;;;;;;;17.20;23.38;100545.85;105538;1281;24398;-83
2022/04/18 11:00:49;;;;;;;1.30;1.10;;;;;;;17.32;23.38;100556.64;105367;1281;25406;-84
2022/04/18 11:03:35;;;;;;;1.50;1.00;;;;;;;17.41;23.19;100555.45;105513;1281;23340;-83
2022/04/18 11:06:08;;;;;;;4.70;1.10;;;;;;;17.49;23.13;100546.80;105251;1282;23940;-82
2022/04/18 11:08:39;;;;;;;1.20;1.10;;;;;;;17.60;22.96;100540.90;105103;1281;25007;-84
2022/04/18 11:11:07;;;;;;;1.80;1.10;;;;;;;17.61;22.78;100534.46;105526;1281;22553;-84
2022/04/18 11:13:33;;;;;;;2.00;1.40;;;;;;;17.29;22.14;100536.80;105518;1281;22557;-84
2022/04/18 11:16:22;;;;;;;1.40;1.10;;;;;;;16.86;22.48;100539.28;104993;1284;22692;-83
2022/04/18 11:19:28;;;;;;;2.20;1.20;;;;;;;16.85;22.80;100535.96;105155;1284;22714;-82
2022/04/18 11:21:57;;;;;;;1.60;1.40;;;;;;;17.12;22.91;100540.41;104490;1290;22590;-83
2022/04/18 11:24:46;;;;;;;1.60;1.50;;;;;;;17.30;22.74;100536.07;104628;1290;25389;-82
2022/04/18 11:27:15;;;;;;;2.00;1.30;;;;;;;17.56;22.82;100524.30;104852;1287;25216;-83
2022/04/18 11:30:06;;;;;;;1.80;1.20;;;;;;;17.80;22.57;100521.66;104979;1284;22565;-83
2022/04/18 11:32:39;;;;;;;1.50;1.20;;;;;;;17.91;22.17;100520.73;105007;1284;25560;-83
2022/04/18 11:35:13;;;;;;;1.90;1.50;;;;;;;18.02;21.85;100520.48;105122;1281;25672;-83
2022/04/18 11:37:45;;;;;;;1.40;1.20;;;;;;;18.12;21.54;100509.58;105320;1281;25342;-84
2022/04/18 11:40:15;;;;;;;1.30;1.20;;;;;;;18.24;21.25;100500.77;105232;1281;24224;-83
2022/04/18 11:42:42;;;;;;;2.60;1.30;;;;;;;18.42;21.53;100493.50;105231;1281;22758;-84
2022/04/18 11:45:20;;;;;;;2.40;1.20;;;;;;;18.64;21.18;100485.80;105319;1281;22551;-84
2022/04/18 11:47:47;;;;;;;1.20;1.00;;;;;;;18.86;21.05;100475.80;105153;1281;22643;-84
2022/04/18 11:50:21;;;;;;;3.80;1.10;;;;;;;19.04;20.82;100466.48;105382;1281;23004;-82
2022/04/18 11:52:49;;;;;;;1.40;1.20;;;;;;;19.18;20.79;100465.71;105385;1281;25148;-83
2022/04/18 11:55:19;;;;;;;1.20;0.90;;;;;;;19.22;20.36;100459.48;105632;1281;22845;-82
2022/04/18 11:57:48;;;;;;;0.90;0.80;;;;;;;19.32;20.22;100465.30;105282;1281;22776;-83
2022/04/18 12:06:44;;;;;;;2.80;0.90;;;;;;;19.51;20.18;100457.83;106445;1281;22603;-84
2022/04/18 12:08:48;;;;;;;2.30;1.10;;;;;;;19.87;19.61;100435.30;105908;1281;22553;-84
2022/04/18 12:11:15;;;;;;;1.50;1.20;;;;;;;19.56;19.83;100441.57;106401;1281;24408;-84
2022/04/18 12:13:46;;;;;;;1.90;0.90;;;;;;;19.14;19.77;100436.45;106432;1281;25961;-83
2022/04/18 12:16:20;;;;;;;1.90;1.50;;;;;;;18.77;19.59;100431.41;105658;1281;25337;-83
2022/04/18 12:18:47;;;;;;;2.80;1.10;;;;;;;18.49;19.67;100425.09;105736;1281;22763;-85
2022/04/18 12:21:13;;;;;;;1.50;1.10;;;;;;;18.14;20.12;100422.75;105648;1281;22678;-84
2022/04/18 12:23:39;;;;;;;1.60;1.00;;;;;;;18.26;20.25;100413.00;104844;1287;22598;-81
2022/04/18 12:26:12;;;;;;;1.60;1.00;;;;;;;18.36;20.18;100410.64;105666;1287;22729;-84
2022/04/18 12:28:39;;;;;;;1.60;1.00;;;;;;;18.59;20.31;100410.23;105938;1287;25495;-84
2022/04/18 12:31:10;;;;;;;1.50;1.10;;;;;;;18.86;20.26;100397.48;106525;1287;22529;-83
2022/04/18 12:33:48;;;;;;;1.50;1.20;;;;;;;19.06;19.66;100390.03;107367;1286;22847;-84